sensor_id;sensor_type;location;lat;lon;timestamp;pressure;altitude;pressure_sealevel;temperature;humidity
68489;BME280;55481;48.764;8.936;2023-03-25T00:03:53;96420;;;6.9;77
68489;BME280;55481;48.764;8.936;2023-03-25T00:06:24;96420;;;6.9;77
68489;BME280;55481;48.764;8.936;2023-03-25T00:08:54;96420;;;7;77
68489;BME280;55481;48.764;8.936;2023-03-25T00:11:25;96420;;;7.1;76.5
68489;BME280;55481;48.764;8.936;2023-03-25T00:13:56;96410;;;7.2;76.5
68489;BME280;55481;48.764;8.936;2023-03-25T00:16:27;96420;;;7.1;76.5
68489;BME280;55481;48.764;8.936;2023-03-25T00:23:59;96400;;;7.3;76.5
68489;BME280;55481;48.764;8.936;2023-03-25T00:29:26;96400;;;7.3;76.5
68489;BME280;55481;48.764;8.936;2023-03-25T00:31:45;96400;;;7.3;76.5
68489;BME280;55481;48.764;8.936;2023-03-25T00:36:38;96410;;;7.4;76.5
68489;BME280;55481;48.764;8.936;2023-03-25T00:39:10;96400;;;7.5;76
68489;BME280;55481;48.764;8.936;2023-03-25T00:41:39;96400;;;7.5;76
68489;BME280;55481;48.764;8.936;2023-03-25T00:44:04;96390;;;7.4;76.5
68489;BME280;55481;48.764;8.936;2023-03-25T00:51:36;96370;;;7.2;76.5
68489;BME280;55481;48.764;8.936;2023-03-25T00:54:07;96380;;;7.2;76.5
68489;BME280;55481;48.764;8.936;2023-03-25T00:56:38;96380;;;7.2;76.5
68489;BME280;55481;48.764;8.936;2023-03-25T00:59:08;96380;;;7.2;76.5
68489;BME280;55481;48.764;8.936;2023-03-25T01:04:15;96380;;;7.1;77
68489;BME280;55481;48.764;8.936;2023-03-25T01:06:46;96380;;;7.2;76.5
68489;BME280;55481;48.764;8.936;2023-03-25T01:09:18;96380;;;7.1;77
68489;BME280;55481;48.764;8.936;2023-03-25T01:11:49;96380;;;7;77
68489;BME280;55481;48.764;8.936;2023-03-25T01:19:41;96390;;;6.9;77
68489;BME280;55481;48.764;8.936;2023-03-25T01:22:00;96380;;;7;77
68489;BME280;55481;48.764;8.936;2023-03-25T01:26:53;96350;;;7.1;77
68489;BME280;55481;48.764;8.936;2023-03-25T01:29:23;96350;;;7.1;77
68489;BME280;55481;48.764;8.936;2023-03-25T01:31:54;96350;;;7.1;77
68489;BME280;55481;48.764;8.936;2023-03-25T01:34:25;96350;;;7.1;77
68489;BME280;55481;48.764;8.936;2023-03-25T01:37:02;96340;;;7.2;127.5
68489;BME280;55481;48.764;8.936;2023-03-25T01:39:32;96350;;;7.1;76.5
68489;BME280;55481;48.764;8.936;2023-03-25T01:46:57;96340;;;7.1;76.5
68489;BME280;55481;48.764;8.936;2023-03-25T01:49:35;96340;;;7.1;76.5
68489;BME280;55481;48.764;8.936;2023-03-25T01:54:22;96330;;;7;76.5
68489;BME280;55481;48.764;8.936;2023-03-25T01:56:57;96330;;;7;77
68489;BME280;55481;48.764;8.936;2023-03-25T01:59:25;96330;;;7.1;76.5
68489;BME280;55481;48.764;8.936;2023-03-25T02:06:56;96330;;;7.1;76.5
68489;BME280;55481;48.764;8.936;2023-03-25T02:11:58;96330;;;7.1;76.5
68489;BME280;55481;48.764;8.936;2023-03-25T02:17:32;96350;;;7.2;76.5
68489;BME280;55481;48.764;8.936;2023-03-25T02:25:12;96350;;;7.1;76.5
68489;BME280;55481;48.764;8.936;2023-03-25T02:27:09;96360;;;7.1;77
68489;BME280;55481;48.764;8.936;2023-03-25T02:29:43;96360;;;7;77
68489;BME280;55481;48.764;8.936;2023-03-25T02:32:14;96380;;;6.8;77.5
68489;BME280;55481;48.764;8.936;2023-03-25T02:34:46;96380;;;6.8;77.5
68489;BME280;55481;48.764;8.936;2023-03-25T02:37:16;96390;;;6.7;77.5
68489;BME280;55481;48.764;8.936;2023-03-25T02:39:53;96410;;;6.7;77.5
68489;BME280;55481;48.764;8.936;2023-03-25T02:47:21;96390;;;5.8;79
68489;BME280;55481;48.764;8.936;2023-03-25T02:49:55;96380;;;5.8;79
68489;BME280;55481;48.764;8.936;2023-03-25T02:52:25;96370;;;5.8;79
68489;BME280;55481;48.764;8.936;2023-03-25T02:57:15;96350;;;5.7;78.5
68489;BME280;55481;48.764;8.936;2023-03-25T02:59:45;96350;;;5.7;78.5
68489;BME280;55481;48.764;8.936;2023-03-25T03:02:16;96350;;;5.7;78.5
68489;BME280;55481;48.764;8.936;2023-03-25T03:04:50;96350;;;5.9;77.5
68489;BME280;55481;48.764;8.936;2023-03-25T03:07:27;96340;;;6;77.5
68489;BME280;55481;48.764;8.936;2023-03-25T03:17:37;96320;;;6.2;77
68489;BME280;55481;48.764;8.936;2023-03-25T03:20:00;96320;;;6.2;77.5
68489;BME280;55481;48.764;8.936;2023-03-25T03:24:55;96340;;;6.5;76.5
68489;BME280;55481;48.764;8.936;2023-03-25T03:27:25;96340;;;6.6;76.5
68489;BME280;55481;48.764;8.936;2023-03-25T03:29:56;96350;;;6.6;76.5
68489;BME280;55481;48.764;8.936;2023-03-25T03:35:00;96360;;;6.6;76.5
68489;BME280;55481;48.764;8.936;2023-03-25T03:37:36;96360;;;6.6;76.5
68489;BME280;55481;48.764;8.936;2023-03-25T03:42:35;96360;;;6.6;76.5
68489;BME280;55481;48.764;8.936;2023-03-25T03:45:20;96370;;;6.6;76.5
68489;BME280;55481;48.764;8.936;2023-03-25T03:49:59;96380;;;6.5;77
68489;BME280;55481;48.764;8.936;2023-03-25T03:52:36;96370;;;6.5;77
68489;BME280;55481;48.764;8.936;2023-03-25T04:02:41;96380;;;6.4;77
68489;BME280;55481;48.764;8.936;2023-03-25T04:05:10;96400;;;6.4;77
68489;BME280;55481;48.764;8.936;2023-03-25T04:07:42;96400;;;6.4;77
68489;BME280;55481;48.764;8.936;2023-03-25T04:10:11;96410;;;6.4;77
68489;BME280;55481;48.764;8.936;2023-03-25T04:12:40;96400;;;6.4;77
68489;BME280;55481;48.764;8.936;2023-03-25T04:15:10;96410;;;6.3;77
68489;BME280;55481;48.764;8.936;2023-03-25T04:17:40;96410;;;6.3;77.5
68489;BME280;55481;48.764;8.936;2023-03-25T04:20:14;96410;;;6.4;77
68489;BME280;55481;48.764;8.936;2023-03-25T04:22:47;96410;;;6.5;77
68489;BME280;55481;48.764;8.936;2023-03-25T04:25:23;96410;;;6.5;77
68489;BME280;55481;48.764;8.936;2023-03-25T04:30:11;96410;;;6.5;77
68489;BME280;55481;48.764;8.936;2023-03-25T04:32:35;96410;;;6.5;77
68489;BME280;55481;48.764;8.936;2023-03-25T04:35:06;96410;;;6.5;77
68489;BME280;55481;48.764;8.936;2023-03-25T04:40:02;96420;;;6.3;77
68489;BME280;55481;48.764;8.936;2023-03-25T04:47:34;96410;;;6.4;77
68489;BME280;55481;48.764;8.936;2023-03-25T04:50:05;96410;;;6.4;77
68489;BME280;55481;48.764;8.936;2023-03-25T04:52:35;96400;;;6.4;76.5
68489;BME280;55481;48.764;8.936;2023-03-25T04:55:07;96400;;;6.4;76.5
68489;BME280;55481;48.764;8.936;2023-03-25T04:57:44;96410;;;6.4;76.5
68489;BME280;55481;48.764;8.936;2023-03-25T05:00:16;96420;;;6.3;77
68489;BME280;55481;48.764;8.936;2023-03-25T05:02:46;96420;;;6.3;77
68489;BME280;55481;48.764;8.936;2023-03-25T05:05:10;96420;;;6.6;76.5
68489;BME280;55481;48.764;8.936;2023-03-25T05:07:41;96420;;;6.7;76.5
68489;BME280;55481;48.764;8.936;2023-03-25T05:17:44;96430;;;6.8;76.5
68489;BME280;55481;48.764;8.936;2023-03-25T05:20:14;96430;;;6.8;76.5
68489;BME280;55481;48.764;8.936;2023-03-25T05:22:46;96430;;;6.7;77
68489;BME280;55481;48.764;8.936;2023-03-25T05:25:16;96440;;;6.8;77
68489;BME280;55481;48.764;8.936;2023-03-25T05:27:47;96440;;;6.8;77
68489;BME280;55481;48.764;8.936;2023-03-25T05:30:24;96440;;;6.7;77
68489;BME280;55481;48.764;8.936;2023-03-25T05:32:56;96450;;;6.8;77
68489;BME280;55481;48.764;8.936;2023-03-25T05:35:26;96440;;;6.7;77
68489;BME280;55481;48.764;8.936;2023-03-25T05:37:57;96440;;;6.7;77
68489;BME280;55481;48.764;8.936;2023-03-25T05:45:22;96450;;;6.8;77
68489;BME280;55481;48.764;8.936;2023-03-25T05:47:53;96450;;;6.8;77
68489;BME280;55481;48.764;8.936;2023-03-25T05:50:24;96440;;;6.8;77
68489;BME280;55481;48.764;8.936;2023-03-25T05:52:57;96440;;;6.8;77
68489;BME280;55481;48.764;8.936;2023-03-25T05:55:26;96440;;;6.9;77
68489;BME280;55481;48.764;8.936;2023-03-25T05:57:56;96440;;;7;76.5
68489;BME280;55481;48.764;8.936;2023-03-25T06:00:27;96440;;;7.1;76.5
68489;BME280;55481;48.764;8.936;2023-03-25T06:02:58;96450;;;7;76.5
68489;BME280;55481;48.764;8.936;2023-03-25T06:05:28;96460;;;6.8;77
68489;BME280;55481;48.764;8.936;2023-03-25T06:08:06;96460;;;6.8;77
68489;BME280;55481;48.764;8.936;2023-03-25T06:10:43;96460;;;6.8;77
68489;BME280;55481;48.764;8.936;2023-03-25T06:13:15;96450;;;7;76.5
68489;BME280;55481;48.764;8.936;2023-03-25T06:23:31;96460;;;6.8;77
68489;BME280;55481;48.764;8.936;2023-03-25T06:25:49;96460;;;6.9;77
68489;BME280;55481;48.764;8.936;2023-03-25T06:28:18;96460;;;7;77
68489;BME280;55481;48.764;8.936;2023-03-25T06:33:13;96460;;;7.1;76.5
68489;BME280;55481;48.764;8.936;2023-03-25T06:35:45;96450;;;7.3;76.5
68489;BME280;55481;48.764;8.936;2023-03-25T06:38:14;96450;;;7.3;76
68489;BME280;55481;48.764;8.936;2023-03-25T06:48:29;96460;;;7.4;76
68489;BME280;55481;48.764;8.936;2023-03-25T06:51:07;96460;;;7.6;76
68489;BME280;55481;48.764;8.936;2023-03-25T06:55:51;96460;;;7.6;76
68489;BME280;55481;48.764;8.936;2023-03-25T06:58:18;96460;;;7.4;76
68489;BME280;55481;48.764;8.936;2023-03-25T07:03:13;96470;;;7.3;76.5
68489;BME280;55481;48.764;8.936;2023-03-25T07:05:44;96470;;;7.3;76.5
68489;BME280;55481;48.764;8.936;2023-03-25T07:08:15;96470;;;7.2;76.5
68489;BME280;55481;48.764;8.936;2023-03-25T07:10:46;96460;;;6.7;77.5
68489;BME280;55481;48.764;8.936;2023-03-25T07:18:18;96460;;;7;77
68489;BME280;55481;48.764;8.936;2023-03-25T07:20:48;96460;;;7.4;76.5
68489;BME280;55481;48.764;8.936;2023-03-25T07:23:19;96450;;;7.6;76
68489;BME280;55481;48.764;8.936;2023-03-25T07:25:50;96450;;;7.6;76
68489;BME280;55481;48.764;8.936;2023-03-25T07:28:35;96450;;;7.8;76
68489;BME280;55481;48.764;8.936;2023-03-25T07:31:05;96430;;;8.1;75.5
68489;BME280;55481;48.764;8.936;2023-03-25T07:35:59;96430;;;8.5;75
68489;BME280;55481;48.764;8.936;2023-03-25T07:38:36;96430;;;8.6;74.5
68489;BME280;55481;48.764;8.936;2023-03-25T07:41:03;96430;;;8.5;75
68489;BME280;55481;48.764;8.936;2023-03-25T07:43:33;96430;;;8.7;75
68489;BME280;55481;48.764;8.936;2023-03-25T07:46:09;96430;;;9;74.5
68489;BME280;55481;48.764;8.936;2023-03-25T07:53:43;96420;;;9.2;74.5
68489;BME280;55481;48.764;8.936;2023-03-25T07:58:42;96420;;;9.3;74.5
68489;BME280;55481;48.764;8.936;2023-03-25T08:01:12;96420;;;9.5;74.5
68489;BME280;55481;48.764;8.936;2023-03-25T08:03:42;96410;;;9.7;74
68489;BME280;55481;48.764;8.936;2023-03-25T08:06:19;96420;;;9.5;74.5
68489;BME280;55481;48.764;8.936;2023-03-25T08:08:56;96420;;;9.5;75
68489;BME280;55481;48.764;8.936;2023-03-25T08:11:13;96420;;;9.7;74.5
68489;BME280;55481;48.764;8.936;2023-03-25T08:13:37;96420;;;10;74
68489;BME280;55481;48.764;8.936;2023-03-25T08:16:10;96430;;;10.3;73
68489;BME280;55481;48.764;8.936;2023-03-25T08:18:41;96440;;;9.8;74.5
68489;BME280;55481;48.764;8.936;2023-03-25T08:21:11;96450;;;9.3;76
68489;BME280;55481;48.764;8.936;2023-03-25T08:23:41;96460;;;8.7;77
68489;BME280;55481;48.764;8.936;2023-03-25T08:26:15;96470;;;7.8;78.5
68489;BME280;55481;48.764;8.936;2023-03-25T08:28:43;96480;;;7;80.5
68489;BME280;55481;48.764;8.936;2023-03-25T08:31:21;96480;;;6.6;81
68489;BME280;55481;48.764;8.936;2023-03-25T08:33:53;96470;;;6.6;81.5
68489;BME280;55481;48.764;8.936;2023-03-25T08:36:17;96480;;;6.6;81
68489;BME280;55481;48.764;8.936;2023-03-25T08:38:47;96480;;;6.7;80.5
68489;BME280;55481;48.764;8.936;2023-03-25T08:41:18;96480;;;6.6;80.5
68489;BME280;55481;48.764;8.936;2023-03-25T08:43:49;96480;;;6.5;80
68489;BME280;55481;48.764;8.936;2023-03-25T08:46:20;96490;;;6.5;80
68489;BME280;55481;48.764;8.936;2023-03-25T08:48:50;96490;;;6.6;79.5
68489;BME280;55481;48.764;8.936;2023-03-25T08:51:21;96490;;;6.6;79.5
68489;BME280;55481;48.764;8.936;2023-03-25T08:53:52;96500;;;6.5;79.5
68489;BME280;55481;48.764;8.936;2023-03-25T08:56:17;96500;;;6.6;79
68489;BME280;55481;48.764;8.936;2023-03-25T09:03:49;96470;;;6.8;78.5
68489;BME280;55481;48.764;8.936;2023-03-25T09:06:20;96450;;;7.3;78
68489;BME280;55481;48.764;8.936;2023-03-25T09:08:51;96450;;;7.9;76
68489;BME280;55481;48.764;8.936;2023-03-25T09:11:22;96440;;;8.1;76
68489;BME280;55481;48.764;8.936;2023-03-25T09:16:30;96450;;;8.6;75
68489;BME280;55481;48.764;8.936;2023-03-25T09:19:01;96450;;;8.5;75
68489;BME280;55481;48.764;8.936;2023-03-25T09:23:56;96450;;;8;76.5
68489;BME280;55481;48.764;8.936;2023-03-25T09:26:36;96450;;;7.9;77
68489;BME280;55481;48.764;8.936;2023-03-25T09:28:57;96450;;;7.9;77.5
68489;BME280;55481;48.764;8.936;2023-03-25T09:36:30;96440;;;8.7;76
68489;BME280;55481;48.764;8.936;2023-03-25T09:39:00;96450;;;8.8;75.5
68489;BME280;55481;48.764;8.936;2023-03-25T09:46:39;96450;;;8.4;77
68489;BME280;55481;48.764;8.936;2023-03-25T09:49:17;96440;;;8.1;77
68489;BME280;55481;48.764;8.936;2023-03-25T09:51:41;96430;;;8.1;77.5
68489;BME280;55481;48.764;8.936;2023-03-25T09:54:17;96440;;;8.6;76.5
68489;BME280;55481;48.764;8.936;2023-03-25T09:56:43;96440;;;8.6;76.5
68489;BME280;55481;48.764;8.936;2023-03-25T09:59:15;96440;;;8.4;76.5
68489;BME280;55481;48.764;8.936;2023-03-25T10:09:40;96440;;;10.3;73.5
68489;BME280;55481;48.764;8.936;2023-03-25T10:14:26;96440;;;10.1;74.5
68489;BME280;55481;48.764;8.936;2023-03-25T10:16:53;96450;;;9.6;75.5
68489;BME280;55481;48.764;8.936;2023-03-25T10:19:25;96440;;;10;75
68489;BME280;55481;48.764;8.936;2023-03-25T10:21:57;96440;;;10.4;74
68489;BME280;55481;48.764;8.936;2023-03-25T10:29:18;96420;;;11.3;72.5
68489;BME280;55481;48.764;8.936;2023-03-25T10:34:18;96430;;;11.4;73
68489;BME280;55481;48.764;8.936;2023-03-25T10:36:52;96440;;;11;74
68489;BME280;55481;48.764;8.936;2023-03-25T10:39:19;96430;;;10.1;76
68489;BME280;55481;48.764;8.936;2023-03-25T10:44:26;96450;;;9.4;78
68489;BME280;55481;48.764;8.936;2023-03-25T10:46:57;96460;;;9.2;78.5
68489;BME280;55481;48.764;8.936;2023-03-25T10:49:29;96450;;;9.6;77.5
68489;BME280;55481;48.764;8.936;2023-03-25T10:51:58;96450;;;9.6;77
68489;BME280;55481;48.764;8.936;2023-03-25T10:59:39;96450;;;8.9;78
68489;BME280;55481;48.764;8.936;2023-03-25T11:02:11;96450;;;9;78
68489;BME280;55481;48.764;8.936;2023-03-25T11:04:37;96460;;;9.3;77.5
68489;BME280;55481;48.764;8.936;2023-03-25T11:07:14;96470;;;9.6;76.5
68489;BME280;55481;48.764;8.936;2023-03-25T11:09:37;96450;;;9.9;75.5
68489;BME280;55481;48.764;8.936;2023-03-25T11:14:35;96450;;;10.6;74.5
68489;BME280;55481;48.764;8.936;2023-03-25T11:17:10;96430;;;10.7;74
68489;BME280;55481;48.764;8.936;2023-03-25T11:19:41;96430;;;10.6;75
68489;BME280;55481;48.764;8.936;2023-03-25T11:22:08;96420;;;10.5;75
68489;BME280;55481;48.764;8.936;2023-03-25T11:24:39;96410;;;10.4;75.5
68489;BME280;55481;48.764;8.936;2023-03-25T11:27:06;96410;;;11;74
68489;BME280;55481;48.764;8.936;2023-03-25T11:32:05;96400;;;11.5;73
68489;BME280;55481;48.764;8.936;2023-03-25T11:34:31;96390;;;11.9;72.5
68489;BME280;55481;48.764;8.936;2023-03-25T11:39:34;96380;;;11.5;73.5
68489;BME280;55481;48.764;8.936;2023-03-25T11:47:06;96390;;;11.4;75.5
68489;BME280;55481;48.764;8.936;2023-03-25T11:49:37;96390;;;10.9;77
68489;BME280;55481;48.764;8.936;2023-03-25T11:54:43;96410;;;10.6;77
68489;BME280;55481;48.764;8.936;2023-03-25T11:57:16;96410;;;11.9;74.5
68489;BME280;55481;48.764;8.936;2023-03-25T11:59:49;96410;;;13;71.5
68489;BME280;55481;48.764;8.936;2023-03-25T12:02:40;96380;;;14.6;67.5
68489;BME280;55481;48.764;8.936;2023-03-25T12:04:40;96380;;;14.8;68
68489;BME280;55481;48.764;8.936;2023-03-25T12:07:12;96380;;;16.2;65
68489;BME280;55481;48.764;8.936;2023-03-25T12:09:41;96390;;;13.9;71.5
68489;BME280;55481;48.764;8.936;2023-03-25T12:12:19;96400;;;15.3;69
68489;BME280;55481;48.764;8.936;2023-03-25T12:14:47;96410;;;15.8;68
68489;BME280;55481;48.764;8.936;2023-03-25T12:20:02;96430;;;12.8;75.5
68489;BME280;55481;48.764;8.936;2023-03-25T12:30:18;96450;;;10.5;80
68489;BME280;55481;48.764;8.936;2023-03-25T12:32:49;96470;;;10.1;80.5
68489;BME280;55481;48.764;8.936;2023-03-25T12:37:27;96480;;;8.6;81.5
68489;BME280;55481;48.764;8.936;2023-03-25T12:41:02;96480;;;8.2;82.5
68489;BME280;55481;48.764;8.936;2023-03-25T12:42:29;96470;;;10;79
68489;BME280;55481;48.764;8.936;2023-03-25T12:57:46;96420;;;15.5;70
68489;BME280;55481;48.764;8.936;2023-03-25T13:02:49;96440;;;13.8;75.5
68489;BME280;55481;48.764;8.936;2023-03-25T13:10:04;96460;;;10.8;81
68489;BME280;55481;48.764;8.936;2023-03-25T13:12:36;96450;;;10.6;81.5
68489;BME280;55481;48.764;8.936;2023-03-25T13:15:25;96460;;;10.7;81
68489;BME280;55481;48.764;8.936;2023-03-25T13:17:37;96450;;;10.7;80.5
68489;BME280;55481;48.764;8.936;2023-03-25T13:20:11;96450;;;10.5;80.5
68489;BME280;55481;48.764;8.936;2023-03-25T13:22:45;96450;;;10.5;80
68489;BME280;55481;48.764;8.936;2023-03-25T13:30:20;96410;;;15.8;69
68489;BME280;55481;48.764;8.936;2023-03-25T13:33:02;96410;;;17.1;67
68489;BME280;55481;48.764;8.936;2023-03-25T13:35:17;96400;;;16.7;69
68489;BME280;55481;48.764;8.936;2023-03-25T13:37:47;96400;;;15.6;72.5
68489;BME280;55481;48.764;8.936;2023-03-25T13:42:42;96380;;;17.9;68.5
68489;BME280;55481;48.764;8.936;2023-03-25T13:45:13;96400;;;17.1;71
68489;BME280;55481;48.764;8.936;2023-03-25T13:47:40;96400;;;16.3;73
68489;BME280;55481;48.764;8.936;2023-03-25T14:00:17;96460;;;10.9;82
68489;BME280;55481;48.764;8.936;2023-03-25T14:02:43;96490;;;10.7;81.5
68489;BME280;55481;48.764;8.936;2023-03-25T14:05:17;96470;;;9.9;81
68489;BME280;55481;48.764;8.936;2023-03-25T14:10:17;96450;;;11.3;81.5
68489;BME280;55481;48.764;8.936;2023-03-25T14:12:44;96430;;;14;74.5
68489;BME280;55481;48.764;8.936;2023-03-25T14:15:20;96420;;;15;71.5
68489;BME280;55481;48.764;8.936;2023-03-25T14:17:50;96410;;;14.9;72
68489;BME280;55481;48.764;8.936;2023-03-25T14:20:22;96420;;;15.7;70.5
68489;BME280;55481;48.764;8.936;2023-03-25T14:23:03;96430;;;15.7;71
68489;BME280;55481;48.764;8.936;2023-03-25T14:30:32;96430;;;15.1;73.5
68489;BME280;55481;48.764;8.936;2023-03-25T14:33:02;96420;;;15.6;72.5
68489;BME280;55481;48.764;8.936;2023-03-25T14:38:17;96400;;;16.3;71
68489;BME280;55481;48.764;8.936;2023-03-25T14:40:45;96400;;;16.7;70.5
68489;BME280;55481;48.764;8.936;2023-03-25T14:42:58;96390;;;16.5;71
68489;BME280;55481;48.764;8.936;2023-03-25T14:48:16;96400;;;17.2;69.5
68489;BME280;55481;48.764;8.936;2023-03-25T14:53:13;96400;;;16.5;71
68489;BME280;55481;48.764;8.936;2023-03-25T14:58:01;96400;;;16.3;71.5
68489;BME280;55481;48.764;8.936;2023-03-25T15:00:32;96380;;;17.4;68.5
68489;BME280;55481;48.764;8.936;2023-03-25T15:03:03;96390;;;17.4;68.5
68489;BME280;55481;48.764;8.936;2023-03-25T15:05:27;96380;;;17.3;68.5
68489;BME280;55481;48.764;8.936;2023-03-25T15:07:59;96390;;;16.8;70
68489;BME280;55481;48.764;8.936;2023-03-25T15:10:29;96390;;;17.4;68
68489;BME280;55481;48.764;8.936;2023-03-25T15:15:32;96390;;;16.3;70.5
68489;BME280;55481;48.764;8.936;2023-03-25T15:18:00;96380;;;16.1;70.5
68489;BME280;55481;48.764;8.936;2023-03-25T15:23:27;96380;;;16.1;69.5
68489;BME280;55481;48.764;8.936;2023-03-25T15:25:44;96370;;;16.3;69.5
68489;BME280;55481;48.764;8.936;2023-03-25T15:28:14;96380;;;16.5;68.5
68489;BME280;55481;48.764;8.936;2023-03-25T15:30:50;96370;;;15;70.5
68489;BME280;55481;48.764;8.936;2023-03-25T15:33:19;96370;;;14.1;72.5
68489;BME280;55481;48.764;8.936;2023-03-25T15:36:49;96380;;;13.7;72.5
68489;BME280;55481;48.764;8.936;2023-03-25T15:40:52;96400;;;13.4;72.5
68489;BME280;55481;48.764;8.936;2023-03-25T15:43:13;96400;;;13.1;72
68489;BME280;55481;48.764;8.936;2023-03-25T15:45:42;96400;;;13.1;72
68489;BME280;55481;48.764;8.936;2023-03-25T15:48:14;96400;;;13.1;71.5
68489;BME280;55481;48.764;8.936;2023-03-25T15:51:24;96390;;;12.8;71.5
68489;BME280;55481;48.764;8.936;2023-03-25T15:53:25;96390;;;12.8;71
68489;BME280;55481;48.764;8.936;2023-03-25T15:56:00;96410;;;12.6;71
68489;BME280;55481;48.764;8.936;2023-03-25T15:58:15;96410;;;12.6;71
68489;BME280;55481;48.764;8.936;2023-03-25T16:08:18;96420;;;11.9;71.5
68489;BME280;55481;48.764;8.936;2023-03-25T16:13:24;96430;;;11.7;71.5
68489;BME280;55481;48.764;8.936;2023-03-25T16:15:55;96430;;;11.6;71.5
68489;BME280;55481;48.764;8.936;2023-03-25T16:18:25;96420;;;11.6;71.5
68489;BME280;55481;48.764;8.936;2023-03-25T16:20:58;96420;;;11.4;72
68489;BME280;55481;48.764;8.936;2023-03-25T16:23:27;96440;;;11.3;72
68489;BME280;55481;48.764;8.936;2023-03-25T16:26:05;96430;;;11.2;72
68489;BME280;55481;48.764;8.936;2023-03-25T16:28:39;96440;;;11.3;71.5
68489;BME280;55481;48.764;8.936;2023-03-25T16:31:01;96430;;;11.3;71.5
68489;BME280;55481;48.764;8.936;2023-03-25T16:33:37;96440;;;11.2;71.5
68489;BME280;55481;48.764;8.936;2023-03-25T16:36:03;96440;;;11.2;71.5
68489;BME280;55481;48.764;8.936;2023-03-25T16:38:33;96440;;;11.2;71.5
68489;BME280;55481;48.764;8.936;2023-03-25T16:41:06;96430;;;11.2;71.5
68489;BME280;55481;48.764;8.936;2023-03-25T16:43:35;96430;;;11;71.5
68489;BME280;55481;48.764;8.936;2023-03-25T16:48:32;96430;;;11;71.5
68489;BME280;55481;48.764;8.936;2023-03-25T16:51:17;96430;;;10.9;71.5
68489;BME280;55481;48.764;8.936;2023-03-25T16:58:33;96420;;;10.9;71.5
68489;BME280;55481;48.764;8.936;2023-03-25T17:01:06;96420;;;10.9;71.5
68489;BME280;55481;48.764;8.936;2023-03-25T17:03:43;96420;;;10.9;71.5
68489;BME280;55481;48.764;8.936;2023-03-25T17:06:17;96420;;;10.9;71.5
68489;BME280;55481;48.764;8.936;2023-03-25T17:08:43;96420;;;10.8;71.5
68489;BME280;55481;48.764;8.936;2023-03-25T17:11:14;96430;;;10.7;71.5
68489;BME280;55481;48.764;8.936;2023-03-25T17:13:46;96430;;;10.6;72
68489;BME280;55481;48.764;8.936;2023-03-25T17:23:45;96430;;;10.4;72
68489;BME280;55481;48.764;8.936;2023-03-25T17:26:13;96430;;;10.4;72
68489;BME280;55481;48.764;8.936;2023-03-25T17:28:56;96430;;;10.2;72.5
68489;BME280;55481;48.764;8.936;2023-03-25T17:31:17;96430;;;10.1;72.5
68489;BME280;55481;48.764;8.936;2023-03-25T17:36:21;96430;;;10.1;72.5
68489;BME280;55481;48.764;8.936;2023-03-25T17:38:52;96430;;;10;72.5
68489;BME280;55481;48.764;8.936;2023-03-25T17:41:26;96430;;;10;72.5
68489;BME280;55481;48.764;8.936;2023-03-25T17:43:48;96430;;;10;72.5
68489;BME280;55481;48.764;8.936;2023-03-25T17:51:19;96450;;;9.8;72.5
68489;BME280;55481;48.764;8.936;2023-03-25T17:53:50;96460;;;9.8;72.5
68489;BME280;55481;48.764;8.936;2023-03-25T17:56:22;96470;;;9.7;72.5
68489;BME280;55481;48.764;8.936;2023-03-25T17:59:13;96480;;;9.7;72.5
68489;BME280;55481;48.764;8.936;2023-03-25T18:01:22;96490;;;9.6;72.5
68489;BME280;55481;48.764;8.936;2023-03-25T18:03:53;96490;;;9.6;72.5
68489;BME280;55481;48.764;8.936;2023-03-25T18:06:24;96490;;;9.5;72.5
68489;BME280;55481;48.764;8.936;2023-03-25T18:09:01;96500;;;9.5;72.5
68489;BME280;55481;48.764;8.936;2023-03-25T18:11:32;96500;;;9.4;72.5
68489;BME280;55481;48.764;8.936;2023-03-25T18:14:03;96500;;;9.3;72.5
68489;BME280;55481;48.764;8.936;2023-03-25T18:16:41;96500;;;9.3;72.5
68489;BME280;55481;48.764;8.936;2023-03-25T18:21:49;96500;;;9.1;72.5
68489;BME280;55481;48.764;8.936;2023-03-25T18:24:12;96500;;;9.1;72.5
68489;BME280;55481;48.764;8.936;2023-03-25T18:29:10;96500;;;9;73
68489;BME280;55481;48.764;8.936;2023-03-25T18:31:36;96510;;;9.1;72.5
68489;BME280;55481;48.764;8.936;2023-03-25T18:34:08;96510;;;9;72.5
68489;BME280;55481;48.764;8.936;2023-03-25T18:36:31;96510;;;9;72.5
68489;BME280;55481;48.764;8.936;2023-03-25T18:46:39;96530;;;8.9;72.5
68489;BME280;55481;48.764;8.936;2023-03-25T18:51:39;96530;;;8.8;73
68489;BME280;55481;48.764;8.936;2023-03-25T18:54:07;96520;;;8.9;72.5
68489;BME280;55481;48.764;8.936;2023-03-25T18:56:38;96530;;;8.9;72.5
68489;BME280;55481;48.764;8.936;2023-03-25T19:07:00;96510;;;8.6;73
68489;BME280;55481;48.764;8.936;2023-03-25T19:09:39;96520;;;8.6;73
68489;BME280;55481;48.764;8.936;2023-03-25T19:11:55;96520;;;8.6;73
68489;BME280;55481;48.764;8.936;2023-03-25T19:16:49;96550;;;8.8;72.5
68489;BME280;55481;48.764;8.936;2023-03-25T19:19:19;96560;;;8.9;72.5
68489;BME280;55481;48.764;8.936;2023-03-25T19:21:50;96570;;;9;72
68489;BME280;55481;48.764;8.936;2023-03-25T19:24:14;96600;;;8.8;72.5
68489;BME280;55481;48.764;8.936;2023-03-25T19:31:47;96590;;;7.1;76.5
68489;BME280;55481;48.764;8.936;2023-03-25T19:34:17;96590;;;6.9;77
68489;BME280;55481;48.764;8.936;2023-03-25T19:36:48;96590;;;6.9;76.5
68489;BME280;55481;48.764;8.936;2023-03-25T19:39:19;96580;;;7;76.5
68489;BME280;55481;48.764;8.936;2023-03-25T19:44:26;96590;;;7.1;75
68489;BME280;55481;48.764;8.936;2023-03-25T19:46:57;96590;;;7.3;74.5
68489;BME280;55481;48.764;8.936;2023-03-25T19:49:28;96580;;;7.3;74.5
68489;BME280;55481;48.764;8.936;2023-03-25T19:51:59;96580;;;7.4;74
68489;BME280;55481;48.764;8.936;2023-03-25T19:54:30;96580;;;7.5;74
68489;BME280;55481;48.764;8.936;2023-03-25T19:57:07;96580;;;7.5;73.5
68489;BME280;55481;48.764;8.936;2023-03-25T19:59:39;96580;;;7.6;73.5
68489;BME280;55481;48.764;8.936;2023-03-25T20:04:34;96590;;;7.6;73.5
68489;BME280;55481;48.764;8.936;2023-03-25T20:09:42;96580;;;7.6;73.5
68489;BME280;55481;48.764;8.936;2023-03-25T20:12:13;96580;;;7.5;73.5
68489;BME280;55481;48.764;8.936;2023-03-25T20:17:07;96580;;;7.5;74
68489;BME280;55481;48.764;8.936;2023-03-25T20:19:38;96570;;;7.5;74
68489;BME280;55481;48.764;8.936;2023-03-25T20:22:08;96570;;;7.5;74
68489;BME280;55481;48.764;8.936;2023-03-25T20:29:46;96560;;;7.2;74.5
68489;BME280;55481;48.764;8.936;2023-03-25T20:32:23;96550;;;7;75
68489;BME280;55481;48.764;8.936;2023-03-25T20:35:00;96560;;;6.9;75